createdAt,value
2018-12-29T00:01:19.952Z,13.60
2018-12-29T00:04:22.034Z,12.30
2018-12-29T00:07:23.938Z,10.67
2018-12-29T00:10:25.913Z,10.43
2018-12-29T00:13:27.897Z,10.40
2018-12-29T00:16:29.950Z,11.23
2018-12-29T00:19:31.959Z,14.20
2018-12-29T00:22:33.983Z,14.20
2018-12-29T00:25:35.956Z,12.77
2018-12-29T00:28:38.004Z,11.37
2018-12-29T00:31:40.003Z,12.57
2018-12-29T00:34:42.029Z,13.00
2018-12-29T00:37:43.980Z,11.27
2018-12-29T00:40:45.979Z,12.67
2018-12-29T00:43:47.952Z,12.33
2018-12-29T00:46:49.963Z,13.53
2018-12-29T00:49:51.910Z,14.00
2018-12-29T00:52:53.845Z,13.03
2018-12-29T00:55:55.809Z,11.97
2018-12-29T00:58:57.753Z,12.93
2018-12-29T01:01:59.913Z,12.77
2018-12-29T01:05:01.953Z,12.00
2018-12-29T01:08:05.078Z,12.77
2018-12-29T01:11:06.984Z,14.43
2018-12-29T01:14:08.911Z,12.83
2018-12-29T01:17:10.945Z,13.07
2018-12-29T01:20:13.073Z,11.77
2018-12-29T01:23:14.975Z,11.80
2018-12-29T01:26:16.978Z,10.43
2018-12-29T01:29:18.989Z,9.93
2018-12-29T01:32:20.945Z,9.90
2018-12-29T01:35:22.889Z,9.77
2018-12-29T01:38:24.897Z,9.10
2018-12-29T01:41:26.823Z,8.37
2018-12-29T01:44:28.800Z,8.43
2018-12-29T01:47:30.713Z,7.87
2018-12-29T01:50:32.654Z,6.73
2018-12-29T01:53:34.654Z,7.17
2018-12-29T01:56:36.618Z,8.70
2018-12-29T01:59:38.508Z,7.50
2018-12-29T02:02:40.606Z,7.80
2018-12-29T02:05:42.585Z,8.37
2018-12-29T02:08:44.529Z,8.47
2018-12-29T02:11:46.489Z,7.67
2018-12-29T02:14:48.472Z,7.53
2018-12-29T02:17:50.462Z,7.33
2018-12-29T02:20:52.391Z,7.63
2018-12-29T02:23:54.453Z,7.60
2018-12-29T02:26:56.457Z,7.53
2018-12-29T02:29:58.470Z,7.83
2018-12-29T02:33:00.452Z,6.20
2018-12-29T02:36:02.594Z,5.97
2018-12-29T02:39:05.336Z,5.53
2018-12-29T02:42:07.366Z,6.80
2018-12-29T02:45:09.299Z,7.00
2018-12-29T02:48:11.261Z,6.60
2018-12-29T02:51:13.311Z,5.93
2018-12-29T02:54:15.346Z,5.87
2018-12-29T02:57:17.243Z,5.73
2018-12-29T03:00:19.300Z,5.43
2018-12-29T03:03:21.439Z,5.73
2018-12-29T03:06:23.517Z,5.27
2018-12-29T03:09:25.588Z,6.40
2018-12-29T03:12:27.500Z,5.17
2018-12-29T03:15:29.493Z,5.73
2018-12-29T03:18:31.434Z,6.47
2018-12-29T03:21:33.685Z,6.20
2018-12-29T03:24:35.577Z,5.73
2018-12-29T03:27:37.589Z,6.97
2018-12-29T03:30:39.483Z,6.70
2018-12-29T03:33:41.466Z,7.00
2018-12-29T03:36:43.478Z,7.37
2018-12-29T03:39:45.381Z,7.30
2018-12-29T03:42:47.616Z,7.57
2018-12-29T03:45:49.609Z,8.47
2018-12-29T03:48:51.604Z,8.87
2018-12-29T03:51:53.628Z,7.80
2018-12-29T03:54:55.511Z,8.13
2018-12-29T03:57:57.518Z,9.70
2018-12-29T04:00:59.479Z,10.97
2018-12-29T04:04:01.559Z,9.73
2018-12-29T04:07:03.565Z,9.73
2018-12-29T04:10:09.169Z,9.40
2018-12-29T04:13:11.115Z,9.90
2018-12-29T04:16:13.046Z,9.43
2018-12-29T04:19:15.036Z,8.73
2018-12-29T04:22:17.051Z,10.70
2018-12-29T04:25:20.790Z,10.27
2018-12-29T04:28:23.116Z,10.10
2018-12-29T04:31:25.013Z,11.63
2018-12-29T04:34:26.960Z,11.13
2018-12-29T04:37:29.001Z,11.03
2018-12-29T04:40:30.891Z,12.00
2018-12-29T04:43:32.874Z,13.37
2018-12-29T04:46:34.833Z,13.87
2018-12-29T04:49:36.755Z,13.33
2018-12-29T04:52:38.734Z,13.13
2018-12-29T04:55:40.650Z,13.47
2018-12-29T04:58:42.595Z,14.30
2018-12-29T05:01:44.555Z,12.93
2018-12-29T05:04:46.640Z,13.93
2018-12-29T05:07:48.638Z,13.87
2018-12-29T05:10:50.521Z,15.63
2018-12-29T05:13:52.578Z,12.10
2018-12-29T05:16:54.748Z,13.50
2018-12-29T05:19:56.737Z,13.80
2018-12-29T05:22:58.687Z,13.40
2018-12-29T05:26:00.744Z,16.03
2018-12-29T05:29:02.695Z,15.00
2018-12-29T05:32:04.715Z,15.60
2018-12-29T05:35:06.772Z,16.43
2018-12-29T05:38:08.743Z,16.80
2018-12-29T05:41:10.768Z,15.40
2018-12-29T05:44:12.664Z,17.87
2018-12-29T05:47:14.647Z,18.57
2018-12-29T05:50:16.626Z,19.77
2018-12-29T05:53:21.593Z,19.27
2018-12-29T05:56:23.696Z,19.03
2018-12-29T05:59:25.775Z,19.37
2018-12-29T06:02:27.738Z,18.10
2018-12-29T06:05:30.887Z,19.30
2018-12-29T06:08:32.915Z,22.07
2018-12-29T06:11:34.899Z,19.73
2018-12-29T06:14:37.631Z,20.17
2018-12-29T06:17:39.643Z,21.33
2018-12-29T06:20:41.686Z,21.13
2018-12-29T06:23:43.617Z,22.37
2018-12-29T06:26:45.672Z,22.40
2018-12-29T06:29:47.658Z,24.07
2018-12-29T06:32:49.684Z,23.50
2018-12-29T06:35:51.668Z,24.57
2018-12-29T06:38:54.111Z,24.70
2018-12-29T06:41:56.072Z,24.03
2018-12-29T06:44:58.124Z,24.50
2018-12-29T06:48:00.072Z,24.70
2018-12-29T06:51:02.159Z,24.63
2018-12-29T06:54:04.165Z,24.30
2018-12-29T06:57:06.108Z,22.73
2018-12-29T07:00:08.036Z,22.10
2018-12-29T07:03:10.105Z,21.70
2018-12-29T07:06:12.130Z,21.60
2018-12-29T07:09:14.147Z,22.10
2018-12-29T07:12:16.118Z,22.67
2018-12-29T07:15:18.042Z,22.83
2018-12-29T07:18:20.047Z,24.00
2018-12-29T07:21:22.091Z,22.27
2018-12-29T07:24:24.121Z,23.10
2018-12-29T07:27:26.040Z,22.27
2018-12-29T07:30:27.990Z,22.23
2018-12-29T07:33:29.972Z,21.97
2018-12-29T07:36:31.956Z,21.93
2018-12-29T07:39:33.965Z,22.67
2018-12-29T07:42:36.030Z,21.90
2018-12-29T07:45:38.173Z,23.03
2018-12-29T07:48:40.113Z,21.67
2018-12-29T07:51:42.061Z,22.00
2018-12-29T07:54:44.147Z,20.77
2018-12-29T07:57:46.114Z,20.67
2018-12-29T08:00:48.153Z,21.33
2018-12-29T08:03:50.093Z,20.57
2018-12-29T08:06:52.077Z,21.13
2018-12-29T08:09:53.990Z,20.67
2018-12-29T08:12:56.009Z,21.27
2018-12-29T08:15:58.075Z,20.73
2018-12-29T08:19:00.517Z,21.97
2018-12-29T08:22:02.751Z,22.70
2018-12-29T08:25:04.857Z,21.53
2018-12-29T08:28:06.919Z,19.83
2018-12-29T08:31:08.869Z,19.20
2018-12-29T08:34:10.854Z,21.13
2018-12-29T08:37:12.857Z,17.20
2018-12-29T08:40:14.914Z,18.57
2018-12-29T08:43:16.894Z,17.87
2018-12-29T08:46:19.024Z,15.63
2018-12-29T08:49:20.980Z,17.50
2018-12-29T08:52:23.363Z,16.00
2018-12-29T08:55:25.292Z,16.57
2018-12-29T08:58:27.339Z,16.60
2018-12-29T09:01:29.393Z,14.33
2018-12-29T09:04:31.472Z,14.13
2018-12-29T09:07:33.397Z,15.40
2018-12-29T09:10:35.348Z,16.23
2018-12-29T09:13:37.710Z,14.93
2018-12-29T09:16:39.707Z,15.07
2018-12-29T09:19:41.921Z,14.30
2018-12-29T09:22:44.027Z,14.13
2018-12-29T09:25:46.041Z,14.23
2018-12-29T09:28:48.059Z,16.53
2018-12-29T09:31:49.993Z,13.53
2018-12-29T09:34:52.016Z,15.70
2018-12-29T09:37:54.062Z,16.93
2018-12-29T09:40:56.131Z,16.97
2018-12-29T09:43:58.131Z,14.60
2018-12-29T09:47:00.207Z,17.57
2018-12-29T09:50:02.235Z,18.23
2018-12-29T09:53:04.203Z,16.93
2018-12-29T09:56:06.182Z,17.70
2018-12-29T09:59:08.179Z,17.20
2018-12-29T10:02:10.286Z,16.60
2018-12-29T10:05:12.263Z,17.77
2018-12-29T10:08:14.277Z,18.57
2018-12-29T10:11:16.290Z,18.03
2018-12-29T10:14:18.195Z,18.63
2018-12-29T10:17:26.788Z,19.27
2018-12-29T10:20:24.151Z,17.27
2018-12-29T10:23:26.279Z,18.20
2018-12-29T10:26:28.488Z,18.03
2018-12-29T10:29:30.588Z,17.53
2018-12-29T10:32:32.852Z,18.23
2018-12-29T10:35:34.973Z,19.03
2018-12-29T10:38:36.904Z,18.57
2018-12-29T10:41:38.952Z,17.33
2018-12-29T10:44:40.942Z,17.80
2018-12-29T10:47:42.886Z,18.23
2018-12-29T10:50:44.938Z,18.40
2018-12-29T10:53:47.023Z,20.07
2018-12-29T10:56:49.102Z,19.13
2018-12-29T10:59:51.107Z,19.67
2018-12-29T11:02:53.018Z,20.17
2018-12-29T11:05:55.054Z,21.67
2018-12-29T11:08:57.038Z,19.77
2018-12-29T11:11:58.937Z,19.33
2018-12-29T11:15:00.884Z,18.80
2018-12-29T11:18:02.771Z,18.47
2018-12-29T11:21:04.814Z,18.87
2018-12-29T11:24:06.923Z,19.33
2018-12-29T11:27:08.968Z,20.93
2018-12-29T11:30:11.009Z,19.47
2018-12-29T11:33:13.108Z,19.63
2018-12-29T11:36:15.287Z,20.87
2018-12-29T11:39:17.889Z,19.70
2018-12-29T11:42:19.943Z,20.63
2018-12-29T11:45:21.874Z,18.80
2018-12-29T11:48:23.916Z,18.27
2018-12-29T11:51:25.956Z,19.60
2018-12-29T11:54:28.001Z,21.20
2018-12-29T11:57:29.922Z,20.30
2018-12-29T12:00:31.814Z,22.80
2018-12-29T12:03:33.765Z,21.83
2018-12-29T12:06:35.796Z,21.77
2018-12-29T12:09:37.825Z,22.50
2018-12-29T12:12:39.830Z,21.30
2018-12-29T12:15:41.833Z,22.23
2018-12-29T12:18:43.758Z,22.37
2018-12-29T12:21:49.830Z,22.17
2018-12-29T12:29:12.626Z,19.27
2018-12-29T12:32:14.970Z,19.47
2018-12-29T12:35:16.983Z,20.00
2018-12-29T12:38:19.123Z,20.17
2018-12-29T12:41:21.096Z,20.10
2018-12-29T12:44:23.010Z,20.10
2018-12-29T12:47:24.959Z,19.20
2018-12-29T12:50:26.898Z,19.27
2018-12-29T12:53:28.881Z,18.73
2018-12-29T12:56:30.907Z,20.20
2018-12-29T12:59:32.934Z,17.83
2018-12-29T13:02:35.013Z,20.50
2018-12-29T13:05:37.014Z,18.30
2018-12-29T13:08:39.251Z,18.90
2018-12-29T13:11:41.226Z,21.30
2018-12-29T13:14:44.267Z,15.70
2018-12-29T13:17:46.288Z,17.10
2018-12-29T13:20:48.371Z,16.93
2018-12-29T13:23:50.409Z,15.47
2018-12-29T13:26:52.559Z,17.90
2018-12-29T13:29:54.748Z,18.43
2018-12-29T13:32:57.006Z,18.00
2018-12-29T13:35:59.189Z,16.20
2018-12-29T13:39:01.549Z,16.97
2018-12-29T13:42:03.589Z,16.00
2018-12-29T13:45:05.966Z,18.23
2018-12-29T13:48:07.951Z,16.77
2018-12-29T13:51:09.943Z,15.60
2018-12-29T13:54:12.041Z,17.80
2018-12-29T13:57:13.967Z,18.33
2018-12-29T14:00:15.929Z,17.33
2018-12-29T14:03:17.964Z,16.47
2018-12-29T14:19:11.326Z,16.13
2018-12-29T14:22:13.361Z,17.80
2018-12-29T14:25:31.245Z,17.37
2018-12-29T14:28:33.177Z,17.03
2018-12-29T14:31:35.107Z,18.37
2018-12-29T14:34:37.181Z,17.47
2018-12-29T14:37:39.230Z,18.60
2018-12-29T14:40:41.187Z,17.97
2018-12-29T14:43:57.132Z,17.40
2018-12-29T14:46:59.104Z,19.07
2018-12-29T14:50:01.009Z,16.60
2018-12-29T14:53:03.074Z,16.83
2018-12-29T14:56:05.319Z,16.60
2018-12-29T14:59:07.336Z,17.67
2018-12-29T15:02:09.589Z,17.73
2018-12-29T15:05:11.625Z,28.67
2018-12-29T15:08:13.646Z,42.80
2018-12-29T15:11:15.679Z,39.43
2018-12-29T15:14:17.727Z,43.73
2018-12-29T15:17:20.212Z,47.80
2018-12-29T15:20:22.204Z,27.67
2018-12-29T15:23:24.168Z,21.93
2018-12-29T15:26:26.095Z,17.73
2018-12-29T15:29:28.061Z,17.77
2018-12-29T15:32:29.983Z,20.17
2018-12-29T15:35:32.368Z,30.70
2018-12-29T15:38:34.734Z,31.80
2018-12-29T15:41:36.687Z,57.73
2018-12-29T15:44:39.106Z,38.97
2018-12-29T15:47:41.640Z,27.17
2018-12-29T15:50:43.587Z,22.50
2018-12-29T15:53:45.548Z,29.17
2018-12-29T15:56:49.387Z,22.07
2018-12-29T15:59:51.326Z,24.77
2018-12-29T16:02:53.249Z,23.40
2018-12-29T16:05:55.183Z,22.37
2018-12-29T16:08:57.242Z,21.47
2018-12-29T16:11:59.878Z,22.27
2018-12-29T16:15:01.806Z,23.00
2018-12-29T16:18:03.889Z,21.37
2018-12-29T16:21:05.785Z,21.27
2018-12-29T16:24:07.751Z,21.97
2018-12-29T16:27:09.615Z,20.97
2018-12-29T16:30:11.555Z,22.83
2018-12-29T16:33:13.641Z,21.60
2018-12-29T16:36:16.383Z,23.67
2018-12-29T16:39:18.480Z,25.37
2018-12-29T16:42:20.336Z,23.63
2018-12-29T16:45:22.317Z,22.20
2018-12-29T16:48:24.241Z,19.83
2018-12-29T16:51:26.796Z,20.77
2018-12-29T16:54:28.701Z,19.33
2018-12-29T16:57:30.680Z,17.37
2018-12-29T17:00:32.621Z,17.33
2018-12-29T17:03:34.534Z,18.63
2018-12-29T17:06:36.585Z,17.43
2018-12-29T17:09:38.609Z,19.60
2018-12-29T17:12:40.512Z,20.00
2018-12-29T17:15:42.771Z,20.83
2018-12-29T17:18:44.861Z,21.17
2018-12-29T17:21:47.475Z,22.30
2018-12-29T17:24:49.564Z,26.83
2018-12-29T17:27:51.582Z,28.03
2018-12-29T17:30:53.718Z,27.57
2018-12-29T17:33:55.782Z,24.00
2018-12-29T17:36:57.884Z,26.50
2018-12-29T17:40:00.078Z,27.47
2018-12-29T17:43:03.611Z,27.87
2018-12-29T17:46:26.086Z,27.97
2018-12-29T17:49:28.124Z,29.17
2018-12-29T17:52:33.004Z,28.93
2018-12-29T17:55:35.567Z,30.37
2018-12-29T17:58:37.509Z,30.30
2018-12-29T18:01:39.457Z,30.07
2018-12-29T18:04:41.382Z,31.20
2018-12-29T18:07:43.304Z,33.53
2018-12-29T18:10:45.347Z,31.83
2018-12-29T18:13:47.305Z,38.03
2018-12-29T18:16:49.688Z,38.67
2018-12-29T18:19:51.988Z,39.53
2018-12-29T18:22:55.135Z,32.00
2018-12-29T18:25:57.908Z,22.13
2018-12-29T18:29:00.139Z,22.67
2018-12-29T18:32:02.066Z,23.03
2018-12-29T18:35:04.377Z,24.10
2018-12-29T18:38:06.307Z,23.40
2018-12-29T18:41:08.377Z,23.27
2018-12-29T18:44:10.878Z,22.40
2018-12-29T18:47:12.826Z,21.40
2018-12-29T18:50:14.744Z,19.77
2018-12-29T18:53:16.786Z,21.20
2018-12-29T18:56:18.827Z,24.53
2018-12-29T18:59:20.796Z,22.73
2018-12-29T19:02:23.251Z,25.93
2018-12-29T19:05:25.238Z,26.77
2018-12-29T19:08:27.230Z,27.37
2018-12-29T19:11:29.209Z,26.87
2018-12-29T19:14:31.228Z,28.63
2018-12-29T19:17:33.158Z,31.87
2018-12-29T19:20:35.988Z,31.07
2018-12-29T19:23:39.699Z,33.20
2018-12-29T19:26:42.011Z,38.13
2018-12-29T19:29:43.938Z,40.23
2018-12-29T19:32:46.638Z,42.30
2018-12-29T19:35:48.592Z,43.73
2018-12-29T19:38:51.149Z,43.43
2018-12-29T19:41:54.996Z,42.83
2018-12-29T19:44:57.148Z,33.47
2018-12-29T19:47:59.038Z,38.30
2018-12-29T19:51:02.361Z,37.03
2018-12-29T19:54:04.873Z,37.07
2018-12-29T19:57:06.847Z,40.10
2018-12-29T20:00:09.782Z,41.50
2018-12-29T20:03:12.309Z,44.20
2018-12-29T20:06:15.093Z,34.73
2018-12-29T20:09:17.029Z,26.80
2018-12-29T20:12:19.422Z,25.43
2018-12-29T20:15:21.480Z,23.07
2018-12-29T20:18:23.397Z,21.43
2018-12-29T20:21:25.381Z,21.73
2018-12-29T20:24:27.718Z,19.73
2018-12-29T20:27:29.737Z,18.70
2018-12-29T20:30:32.712Z,16.70
2018-12-29T20:33:35.883Z,15.50
2018-12-29T20:36:38.385Z,13.60
2018-12-29T20:39:40.417Z,14.13
2018-12-29T20:42:42.508Z,12.27
2018-12-29T20:45:44.497Z,13.40
2018-12-29T20:48:47.047Z,13.10
2018-12-29T20:51:49.985Z,13.00
2018-12-29T20:54:53.162Z,11.77
2018-12-29T20:57:55.144Z,11.93
2018-12-29T21:00:57.057Z,11.00
2018-12-29T21:03:59.067Z,11.03
2018-12-29T21:07:03.697Z,10.13
2018-12-29T21:10:08.079Z,10.10
2018-12-29T21:13:11.902Z,12.13
2018-12-29T21:16:15.347Z,12.80
2018-12-29T21:19:19.617Z,12.33
2018-12-29T21:22:23.888Z,12.20
2018-12-29T21:25:26.554Z,13.57
2018-12-29T21:28:28.942Z,13.77
2018-12-29T21:31:30.978Z,13.37
2018-12-29T21:34:33.284Z,11.43
2018-12-29T21:37:37.320Z,10.00
2018-12-29T21:40:39.354Z,8.47
2018-12-29T21:43:42.961Z,8.43
2018-12-29T21:46:45.087Z,7.67
2018-12-29T21:52:49.251Z,9.20
2018-12-29T21:55:51.421Z,10.80
2018-12-29T21:58:53.287Z,9.93
2018-12-29T22:01:55.198Z,10.27
2018-12-29T22:04:57.100Z,9.87
2018-12-29T22:07:58.986Z,9.10
2018-12-29T22:11:00.910Z,8.30
2018-12-29T22:14:02.837Z,8.23
2018-12-29T22:17:04.921Z,10.37
2018-12-29T22:20:06.997Z,10.10
2018-12-29T22:23:08.915Z,8.83
2018-12-29T22:26:10.902Z,9.97
2018-12-29T22:29:12.816Z,8.10
2018-12-29T22:32:14.739Z,8.10
2018-12-29T22:35:16.844Z,11.37
2018-12-29T22:38:18.799Z,11.97
2018-12-29T22:44:36.059Z,15.27
2018-12-29T22:47:37.950Z,13.67
2018-12-29T22:50:41.083Z,14.73
2018-12-29T22:53:43.554Z,12.87
2018-12-29T22:56:45.697Z,13.07
2018-12-29T22:59:47.582Z,13.23
2018-12-29T23:02:49.432Z,13.20
2018-12-29T23:05:51.630Z,13.13
2018-12-29T23:08:53.693Z,14.23
2018-12-29T23:11:55.616Z,12.90
2018-12-29T23:14:57.489Z,13.90
2018-12-29T23:17:59.423Z,12.87
2018-12-29T23:21:01.314Z,13.30
2018-12-29T23:24:03.255Z,12.33
2018-12-29T23:27:06.582Z,12.13
2018-12-29T23:30:08.945Z,12.00
2018-12-29T23:33:11.297Z,12.93
2018-12-29T23:36:13.273Z,13.70
2018-12-29T23:39:15.262Z,12.60
2018-12-29T23:42:17.904Z,14.33
2018-12-29T23:45:19.790Z,14.27
2018-12-29T23:48:22.169Z,12.67
2018-12-29T23:51:24.139Z,14.37
2018-12-29T23:54:26.054Z,14.33
2018-12-29T23:57:28.590Z,13.90
